Time;durP1;ratioP1;P1;durP2;ratioP2;P2;SDS_P1;SDS_P2;PMS_P1;PMS_P2;Temp;Humidity;BMP_temperature;BMP_pressure;BME280_temperature;BME280_humidity;BME280_pressure;Samples;Min_cycle;Max_cycle;Signal;HPM_P1;HPM_P2
2021/04/14 04:15:58;;;;;;;6.60;1.00;;;-1.70;99.90;;;;;;5037069;28;20053;-67
2021/04/14 04:18:24;;;;;;;0.82;0.82;;;-1.30;99.90;;;;;;5052071;28;20071;-67
2021/04/14 04:20:50;;;;;;;1.48;1.10;;;-1.00;99.90;;;;;;5032894;28;20013;-67
2021/04/14 04:23:16;;;;;;;1.00;0.90;;;-0.70;99.90;;;;;;5039851;28;20435;-68
2021/04/14 04:25:41;;;;;;;1.17;1.00;;;-0.40;99.90;;;;;;5037517;28;20041;-67
2021/04/14 04:28:08;;;;;;;2.17;0.95;;;-0.10;98.70;;;;;;5039089;28;20464;-67
2021/04/14 04:30:34;;;;;;;0.80;0.80;;;0.10;97.40;;;;;;5031778;28;20465;-70
2021/04/14 04:33:00;;;;;;;0.88;0.82;;;0.40;95.90;;;;;;5034831;28;20029;-69
2021/04/14 04:35:29;;;;;;;2.35;0.80;;;0.70;93.80;;;;;;5050610;28;20036;-68
2021/04/14 04:37:55;;;;;;;1.27;0.70;;;1.00;92.20;;;;;;5031730;28;20500;-67
2021/04/14 04:40:21;;;;;;;0.80;0.80;;;1.30;94.70;;;;;;5045102;28;20032;-72
2021/04/14 04:42:48;;;;;;;1.55;0.90;;;2.00;99.90;;;;;;5051092;28;20503;-69
2021/04/14 04:45:16;;;;;;;5.30;0.93;;;2.40;89.80;;;;;;5051233;28;20486;-69
2021/04/14 04:47:42;;;;;;;1.10;0.75;;;2.40;85.30;;;;;;5042711;28;20021;-70
2021/04/14 04:50:08;;;;;;;2.28;1.02;;;2.50;83.40;;;;;;5031379;28;20437;-68
2021/04/14 04:52:34;;;;;;;2.92;0.93;;;2.50;81.90;;;;;;5037238;28;20022;-70
2021/04/14 04:55:00;;;;;;;0.82;0.80;;;2.60;81.10;;;;;;5038688;28;20041;-69
2021/04/14 04:57:26;;;;;;;0.80;0.80;;;2.90;80.20;;;;;;5050183;28;20029;-69
2021/04/14 04:59:52;;;;;;;1.73;0.80;;;3.00;79.40;;;;;;5046332;28;20481;-69
2021/04/14 05:02:19;;;;;;;0.95;0.80;;;3.40;78.30;;;;;;5038138;28;20024;-69
2021/04/14 05:04:45;;;;;;;1.02;0.85;;;3.60;76.10;;;;;;5046205;28;20026;-69
2021/04/14 05:07:11;;;;;;;2.67;0.90;;;3.80;76.10;;;;;;5046757;28;20086;-69
2021/04/14 05:09:36;;;;;;;1.75;0.82;;;4.00;74.80;;;;;;5046257;28;20057;-68
2021/04/14 05:12:02;;;;;;;6.30;1.27;;;4.20;73.80;;;;;;5047719;28;20071;-69
2021/04/14 05:14:28;;;;;;;0.70;0.70;;;4.40;73.70;;;;;;5046900;28;20084;-68
2021/04/14 05:16:54;;;;;;;2.92;0.70;;;4.70;72.10;;;;;;5047968;28;20083;-71
2021/04/14 05:19:19;;;;;;;0.60;0.60;;;4.80;71.50;;;;;;5047901;28;20029;-71
2021/04/14 05:21:45;;;;;;;1.00;0.65;;;4.90;70.60;;;;;;5040580;28;20071;-74
2021/04/14 05:24:12;;;;;;;0.77;0.60;;;5.00;69.60;;;;;;5049693;28;20400;-70
2021/04/14 05:26:38;;;;;;;1.35;0.70;;;5.10;69.30;;;;;;5044913;28;20032;-68
2021/04/14 05:29:05;;;;;;;1.33;0.75;;;5.20;70.10;;;;;;5048753;28;20488;-68
2021/04/14 05:31:38;;;;;;;0.75;0.57;;;5.40;68.10;;;;;;5040580;28;20417;-69
2021/04/14 05:34:03;;;;;;;0.50;0.50;;;5.40;67.50;;;;;;5054381;28;20608;-69
2021/04/14 05:36:29;;;;;;;1.05;0.60;;;5.40;67.20;;;;;;5045774;28;20037;-69
2021/04/14 05:38:55;;;;;;;2.08;0.60;;;5.40;68.10;;;;;;5052950;28;20045;-69
2021/04/14 05:41:21;;;;;;;0.68;0.60;;;5.40;66.70;;;;;;5054534;28;20025;-69
2021/04/14 05:43:48;;;;;;;0.60;0.60;;;5.60;68.30;;;;;;5054481;28;20104;-69
2021/04/14 05:46:16;;;;;;;0.60;0.60;;;5.80;68.00;;;;;;5054525;28;20043;-69
2021/04/14 05:48:43;;;;;;;3.88;0.75;;;6.00;66.90;;;;;;5054361;28;20159;-69
2021/04/14 05:51:12;;;;;;;2.40;0.70;;;6.30;66.20;;;;;;5040741;28;20029;-69
2021/04/14 05:53:39;;;;;;;3.03;0.75;;;6.30;65.40;;;;;;5054478;28;20025;-68
2021/04/14 05:56:08;;;;;;;2.13;0.63;;;6.20;65.20;;;;;;5054556;28;20040;-68
2021/04/14 05:58:34;;;;;;;1.15;0.65;;;6.80;69.50;;;;;;5040447;28;20032;-68
2021/04/14 06:01:01;;;;;;;4.20;0.60;;;6.80;65.10;;;;;;5051867;28;20083;-70
2021/04/14 06:03:26;;;;;;;1.80;0.60;;;6.80;65.80;;;;;;5034263;28;20116;-69
2021/04/14 06:05:56;;;;;;;0.95;0.70;;;6.80;64.50;;;;;;5037780;28;20100;-71
2021/04/14 06:08:23;;;;;;;0.60;0.55;;;6.80;64.40;;;;;;5049481;28;20022;-71
2021/04/14 06:10:49;;;;;;;0.60;0.60;;;6.70;64.20;;;;;;5036297;28;20038;-69
2021/04/14 06:13:16;;;;;;;1.50;0.70;;;6.70;65.30;;;;;;5036303;28;20044;-69
2021/04/14 06:15:43;;;;;;;0.55;0.40;;;6.80;67.40;;;;;;5044451;28;20057;-65
2021/04/14 06:18:09;;;;;;;0.88;0.60;;;7.90;79.10;;;;;;5050797;28;20028;-69
2021/04/14 06:20:36;;;;;;;1.55;0.57;;;8.30;64.50;;;;;;5038838;28;20392;-70
2021/04/14 06:23:05;;;;;;;1.40;0.57;;;7.90;63.00;;;;;;5050890;28;20096;-70
2021/04/14 06:25:36;;;;;;;1.85;0.52;;;7.60;63.50;;;;;;5053765;28;20393;-70
2021/04/14 06:28:06;;;;;;;1.20;0.52;;;7.10;63.50;;;;;;5043520;28;20063;-70
2021/04/14 06:30:35;;;;;;;1.02;0.45;;;6.90;64.60;;;;;;5043062;28;20081;-70
2021/04/14 06:33:03;;;;;;;0.60;0.60;;;6.90;65.30;;;;;;5053466;28;20071;-70
2021/04/14 06:35:31;;;;;;;1.00;0.68;;;6.90;64.80;;;;;;5053391;28;20661;-70
2021/04/14 06:37:57;;;;;;;1.02;0.52;;;7.00;65.60;;;;;;5053242;28;20397;-70
2021/04/14 06:41:21;;;;;;;0.68;0.50;;;6.90;65.00;;;;;;5048240;28;20024;-66
2021/04/14 06:43:25;;;;;;;1.10;0.60;;;6.80;66.40;;;;;;5037990;28;20087;-70
2021/04/14 06:45:57;;;;;;;0.82;0.70;;;7.40;73.10;;;;;;5044520;28;20036;-69
2021/04/14 06:48:53;;;;;;;1.15;0.60;;;7.40;65.60;;;;;;5035928;28;20480;-67
2021/04/14 06:51:43;;;;;;;1.40;0.70;;;7.30;72.30;;;;;;5059328;28;20095;-68
2021/04/14 06:54:34;;;;;;;0.93;0.55;;;7.50;71.10;;;;;;5041673;28;20041;-67
2021/04/14 06:57:04;;;;;;;0.40;0.40;;;7.70;69.90;;;;;;5033015;28;20049;-68
2021/04/14 06:59:34;;;;;;;1.42;0.60;;;7.80;69.60;;;;;;5042152;28;20025;-68
2021/04/14 07:02:10;;;;;;;0.75;0.60;;;7.90;68.00;;;;;;5052969;28;20116;-68
2021/04/14 07:04:47;;;;;;;1.13;0.45;;;7.80;67.60;;;;;;5053016;28;20033;-67
2021/04/14 07:07:20;;;;;;;1.33;0.60;;;7.70;67.30;;;;;;5052660;28;20033;-71
2021/04/14 07:09:48;;;;;;;0.95;0.60;;;7.40;67.30;;;;;;5052745;28;20083;-71
2021/04/14 07:12:19;;;;;;;1.70;0.95;;;7.20;67.10;;;;;;5051642;28;20104;-71
2021/04/14 07:14:46;;;;;;;1.25;0.57;;;6.90;67.00;;;;;;5051999;28;20049;-71
2021/04/14 07:17:31;;;;;;;0.90;0.50;;;6.60;68.00;;;;;;5052109;28;20103;-69
2021/04/14 07:20:15;;;;;;;0.77;0.52;;;6.40;69.10;;;;;;5053571;28;20029;-70
2021/04/14 07:22:51;;;;;;;1.77;0.70;;;6.30;69.10;;;;;;5052895;28;20033;-70
2021/04/14 07:25:19;;;;;;;1.50;0.73;;;6.00;69.90;;;;;;5052681;28;20020;-72
2021/04/14 07:28:26;;;;;;;2.42;0.68;;;5.80;70.40;;;;;;5052979;28;20399;-74
2021/04/14 07:30:59;;;;;;;1.35;0.60;;;5.80;71.70;;;;;;5058410;28;20499;-73
2021/04/14 07:33:33;;;;;;;1.95;0.70;;;5.70;72.00;;;;;;5061356;28;20051;-71
2021/04/14 07:36:11;;;;;;;2.88;0.85;;;5.60;72.60;;;;;;5056770;28;20096;-69
2021/04/14 07:39:01;;;;;;;0.82;0.65;;;5.60;73.10;;;;;;5052651;28;20024;-68
2021/04/14 07:41:50;;;;;;;1.40;0.82;;;6.30;99.90;;;;;;5052852;28;20025;-69
2021/04/14 07:44:37;;;;;;;2.30;0.73;;;7.30;99.90;;;;;;5052238;28;20578;-69
2021/04/14 07:47:07;;;;;;;1.13;0.80;;;7.90;74.10;;;;;;5052089;28;20112;-69
2021/04/14 07:49:35;;;;;;;3.17;0.70;;;7.10;72.00;;;;;;5051987;28;20091;-69
2021/04/14 07:52:00;;;;;;;1.77;0.60;;;6.70;73.10;;;;;;5052457;28;20480;-69
2021/04/14 07:54:38;;;;;;;1.30;0.60;;;6.30;73.30;;;;;;5052290;28;20041;-69
2021/04/14 07:57:04;;;;;;;2.20;0.60;;;6.00;74.60;;;;;;5052634;28;20448;-69
2021/04/14 07:59:33;;;;;;;1.17;0.80;;;5.80;76.20;;;;;;5052444;28;20037;-69
2021/04/14 08:02:13;;;;;;;0.90;0.63;;;5.80;76.70;;;;;;5052456;28;20017;-69
2021/04/14 08:04:45;;;;;;;0.90;0.70;;;5.70;76.50;;;;;;5052480;28;20385;-69
2021/04/14 08:07:13;;;;;;;1.02;0.55;;;5.70;77.30;;;;;;5052325;28;20025;-69
2021/04/14 08:10:06;;;;;;;2.28;0.73;;;5.60;77.70;;;;;;5052463;28;20021;-69
2021/04/14 08:12:49;;;;;;;0.63;0.52;;;5.60;78.80;;;;;;5052214;28;20013;-69
2021/04/14 08:15:17;;;;;;;3.10;0.60;;;5.60;79.20;;;;;;5052098;28;20132;-69
2021/04/14 08:17:44;;;;;;;2.15;0.65;;;5.50;79.70;;;;;;5052186;28;20021;-69
2021/04/14 08:20:28;;;;;;;2.25;0.52;;;5.50;80.60;;;;;;5052233;28;20086;-69
2021/04/14 08:23:12;;;;;;;1.73;1.10;;;5.50;81.50;;;;;;5052276;28;20021;-69
2021/04/14 08:25:44;;;;;;;2.38;0.75;;;5.40;81.40;;;;;;5052374;28;20035;-69
2021/04/14 08:28:10;;;;;;;1.08;0.60;;;5.40;82.00;;;;;;5051965;28;20503;-69
2021/04/14 08:30:36;;;;;;;2.83;0.95;;;5.40;81.50;;;;;;5051934;28;20037;-69
2021/04/14 08:33:16;;;;;;;1.95;0.70;;;5.40;82.00;;;;;;5051939;28;20029;-69
2021/04/14 08:35:46;;;;;;;2.30;0.88;;;5.30;82.30;;;;;;5051936;28;20388;-69
2021/04/14 08:38:15;;;;;;;0.93;0.60;;;5.30;82.10;;;;;;5051886;28;20025;-69
2021/04/14 08:41:04;;;;;;;0.98;0.60;;;5.30;82.20;;;;;;5051888;28;20044;-69
2021/04/14 08:43:42;;;;;;;2.45;0.80;;;5.40;82.20;;;;;;5051745;28;20504;-69
2021/04/14 08:46:18;;;;;;;0.52;0.50;;;5.30;81.70;;;;;;5051861;28;20025;-69
2021/04/14 08:49:04;;;;;;;0.85;0.50;;;5.20;82.70;;;;;;5051851;28;20029;-69
2021/04/14 08:51:35;;;;;;;0.93;0.70;;;5.20;82.60;;;;;;5051738;28;20059;-69
2021/04/14 08:54:01;;;;;;;2.63;0.70;;;5.10;84.00;;;;;;5051778;28;20037;-69
2021/04/14 08:56:27;;;;;;;3.35;0.70;;;5.10;84.40;;;;;;5051912;28;20385;-69
2021/04/14 08:58:55;;;;;;;2.60;0.80;;;5.10;85.60;;;;;;5051979;28;20032;-69
2021/04/14 09:01:22;;;;;;;1.30;1.00;;;5.10;86.30;;;;;;5052702;28;20025;-69
2021/04/14 09:03:48;;;;;;;1.02;1.00;;;5.10;87.00;;;;;;5055842;28;20017;-69
2021/04/14 09:06:16;;;;;;;1.08;0.70;;;5.20;87.50;;;;;;5055629;28;20029;-69
2021/04/14 09:08:46;;;;;;;1.55;0.60;;;5.10;86.00;;;;;;5055474;28;20033;-65
2021/04/14 09:11:24;;;;;;;0.87;0.50;;;6.60;99.90;;;;;;5055645;28;20039;-68
2021/04/14 09:14:14;;;;;;;0.60;0.57;;;9.60;86.60;;;;;;5055472;28;20036;-69
2021/04/14 09:16:57;;;;;;;1.77;0.60;;;9.10;70.90;;;;;;5055831;28;20167;-69
2021/04/14 09:19:38;;;;;;;2.65;0.70;;;8.00;71.90;;;;;;5055418;28;20028;-69
2021/04/14 09:22:19;;;;;;;2.85;0.60;;;7.40;75.20;;;;;;5055721;28;20087;-69
2021/04/14 09:24:45;;;;;;;0.85;0.60;;;7.00;77.70;;;;;;5055185;28;20097;-68
2021/04/14 09:27:36;;;;;;;0.88;0.70;;;7.10;94.60;;;;;;5035837;28;20120;-68
2021/04/14 09:30:01;;;;;;;;;;;7.60;79.60;;;;;;5036087;28;20280;-68
2021/04/14 09:32:51;;;;;;;0.95;0.50;;;7.30;76.50;;;;;;5035340;28;20416;-70
2021/04/14 09:35:29;;;;;;;1.33;0.60;;;7.00;79.20;;;;;;5035526;28;20037;-70
2021/04/14 09:38:08;;;;;;;2.38;0.60;;;6.80;80.50;;;;;;5035337;28;20052;-70
2021/04/14 09:40:36;;;;;;;1.35;0.70;;;6.70;81.50;;;;;;5035362;28;20033;-70
2021/04/14 09:43:26;;;;;;;4.53;0.50;;;6.60;81.20;;;;;;5035334;28;20089;-69
2021/04/14 09:46:00;;;;;;;2.92;0.65;;;6.50;81.10;;;;;;5035330;28;20028;-70
2021/04/14 09:48:38;;;;;;;0.65;0.65;;;6.40;82.30;;;;;;5035356;28;20025;-69
2021/04/14 09:51:18;;;;;;;0.93;0.65;;;6.40;82.20;;;;;;5035058;28;20018;-70
2021/04/14 09:53:44;;;;;;;1.60;0.80;;;6.30;81.90;;;;;;5034963;28;20029;-70
2021/04/14 09:56:19;;;;;;;2.15;0.70;;;6.30;82.50;;;;;;5040111;28;20056;-70
2021/04/14 09:58:54;;;;;;;0.80;0.50;;;6.20;82.30;;;;;;5052312;28;20493;-69
2021/04/14 10:01:32;;;;;;;1.10;0.70;;;6.20;82.80;;;;;;5054572;28;20105;-68
2021/04/14 10:04:17;;;;;;;0.55;0.55;;;6.20;83.30;;;;;;5054678;28;20028;-69
2021/04/14 10:06:42;;;;;;;0.65;0.50;;;6.20;83.10;;;;;;5054954;28;20034;-69
2021/04/14 10:09:18;;;;;;;0.90;0.50;;;6.20;83.40;;;;;;5054696;28;20029;-69
2021/04/14 10:11:44;;;;;;;0.80;0.50;;;6.10;82.50;;;;;;5053895;28;20104;-69
2021/04/14 10:14:16;;;;;;;0.65;0.60;;;6.10;83.30;;;;;;5054288;28;20158;-70
2021/04/14 10:16:43;;;;;;;1.83;0.60;;;6.20;84.20;;;;;;5054414;28;20029;-69
2021/04/14 10:19:23;;;;;;;0.52;0.50;;;6.20;84.00;;;;;;5054677;28;20040;-69
2021/04/14 10:21:49;;;;;;;1.17;0.70;;;6.30;83.80;;;;;;5054797;28;20029;-69
2021/04/14 10:24:18;;;;;;;3.03;0.60;;;6.30;83.70;;;;;;5054636;28;20558;-69
2021/04/14 10:26:55;;;;;;;1.38;0.63;;;6.30;83.30;;;;;;5054463;28;20107;-69
2021/04/14 10:29:27;;;;;;;1.70;0.50;;;6.30;83.10;;;;;;5054152;28;20104;-68
2021/04/14 10:31:57;;;;;;;1.20;0.63;;;6.40;83.00;;;;;;5054306;28;20104;-69
2021/04/14 10:34:34;;;;;;;0.80;0.60;;;6.40;82.70;;;;;;5053932;28;20037;-69
2021/04/14 10:37:13;;;;;;;2.15;0.73;;;6.30;82.70;;;;;;5052282;28;20485;-68
2021/04/14 10:39:39;;;;;;;0.68;0.60;;;6.30;83.70;;;;;;5053425;28;20028;-69
2021/04/14 10:42:22;;;;;;;0.73;0.57;;;6.30;83.60;;;;;;5053672;28;20488;-69
2021/04/14 10:44:49;;;;;;;2.38;0.85;;;6.30;84.10;;;;;;5053498;28;20033;-69
2021/04/14 10:47:29;;;;;;;0.63;0.60;;;6.30;83.80;;;;;;5053458;28;20013;-69
2021/04/14 10:50:04;;;;;;;2.40;0.60;;;6.40;83.20;;;;;;5051140;28;20025;-69
2021/04/14 10:52:30;;;;;;;1.08;0.70;;;6.40;83.60;;;;;;5053384;28;20083;-69
2021/04/14 10:54:59;;;;;;;0.63;0.63;;;6.30;83.00;;;;;;5052966;28;20037;-69
2021/04/14 10:57:38;;;;;;;0.82;0.55;;;6.30;82.70;;;;;;5051081;28;20104;-69
2021/04/14 11:00:13;;;;;;;0.98;0.50;;;6.30;82.90;;;;;;5034127;28;20104;-69
2021/04/14 11:02:44;;;;;;;1.52;0.80;;;6.40;83.10;;;;;;5033795;28;20021;-69
2021/04/14 11:05:14;;;;;;;1.55;0.60;;;6.30;82.70;;;;;;5033532;28;20109;-69
2021/04/14 11:07:43;;;;;;;0.88;0.43;;;6.40;82.70;;;;;;5050334;28;20021;-69
2021/04/14 11:10:13;;;;;;;1.17;0.80;;;6.40;82.60;;;;;;5052821;28;20021;-69
2021/04/14 11:12:44;;;;;;;1.75;0.70;;;6.50;81.80;;;;;;5050233;28;20029;-69
2021/04/14 11:15:20;;;;;;;0.75;0.50;;;6.50;80.70;;;;;;5039040;28;20049;-69
2021/04/14 11:18:02;;;;;;;1.23;0.60;;;6.50;78.40;;;;;;5052956;28;20013;-68
2021/04/14 11:21:06;;;;;;;4.55;0.70;;;7.10;99.90;;;;;;5053143;28;20107;-67
2021/04/14 11:23:38;;;;;;;1.33;0.50;;;9.20;99.90;;;;;;5051791;28;20037;-69
2021/04/14 11:26:17;;;;;;;1.48;0.50;;;9.50;75.00;;;;;;5052650;28;20377;-69
2021/04/14 11:28:49;;;;;;;1.25;0.60;;;8.70;71.20;;;;;;5053348;28;20106;-70
2021/04/14 11:31:39;;;;;;;1.13;0.60;;;8.20;71.70;;;;;;5053336;28;20055;-69
2021/04/14 11:34:19;;;;;;;1.55;0.57;;;7.70;72.60;;;;;;5052862;28;20033;-69
2021/04/14 11:37:03;;;;;;;1.07;0.50;;;7.40;73.30;;;;;;5052992;28;20029;-69
2021/04/14 11:39:48;;;;;;;1.67;0.60;;;7.10;72.80;;;;;;5052724;28;20240;-69
2021/04/14 11:42:20;;;;;;;1.65;0.68;;;7.00;74.80;;;;;;5051724;28;20064;-69
2021/04/14 11:44:56;;;;;;;5.05;0.70;;;7.00;74.30;;;;;;5052723;28;20028;-69
2021/04/14 11:47:33;;;;;;;2.13;0.50;;;7.00;74.10;;;;;;5052838;28;20107;-69
2021/04/14 11:50:13;;;;;;;1.38;0.60;;;7.00;73.90;;;;;;5052594;28;20056;-69
2021/04/14 11:52:54;;;;;;;0.98;0.50;;;7.10;74.50;;;;;;5052897;28;20025;-69
2021/04/14 11:55:20;;;;;;;10.75;0.80;;;7.20;75.10;;;;;;5052565;28;20057;-69
2021/04/14 11:57:49;;;;;;;1.90;0.40;;;7.30;74.60;;;;;;5052535;28;20075;-69
2021/04/14 12:00:18;;;;;;;1.23;0.77;;;7.30;73.10;;;;;;5052556;28;20096;-69
2021/04/14 12:02:46;;;;;;;0.40;0.40;;;7.40;72.90;;;;;;5051221;28;20017;-69
2021/04/14 12:05:12;;;;;;;4.32;1.00;;;7.50;72.60;;;;;;5052348;28;20028;-69
2021/04/14 12:07:38;;;;;;;0.93;0.50;;;7.50;72.50;;;;;;5051804;28;20032;-66
2021/04/14 12:10:05;;;;;;;1.70;0.50;;;7.60;71.70;;;;;;5051553;28;20025;-69
2021/04/14 12:12:32;;;;;;;0.75;0.50;;;9.00;75.70;;;;;;5052269;28;20242;-68
2021/04/14 12:14:58;;;;;;;0.50;0.40;;;8.90;66.20;;;;;;5052213;28;20053;-66
2021/04/14 12:17:24;;;;;;;0.40;0.40;;;8.50;64.50;;;;;;5052544;28;20025;-66
2021/04/14 12:19:50;;;;;;;0.40;0.40;;;8.00;63.50;;;;;;5052263;28;20067;-67
2021/04/14 12:22:16;;;;;;;0.40;0.40;;;7.70;63.60;;;;;;5052623;28;20044;-66
2021/04/14 12:24:43;;;;;;;1.20;0.40;;;7.50;63.90;;;;;;5052299;28;20028;-66
2021/04/14 12:27:09;;;;;;;1.20;0.65;;;7.30;63.00;;;;;;5052368;28;20032;-66
2021/04/14 12:29:36;;;;;;;4.38;0.60;;;7.30;63.80;;;;;;5052226;28;20028;-66
2021/04/14 12:32:02;;;;;;;0.73;0.55;;;7.30;63.40;;;;;;5052064;28;20036;-64
2021/04/14 12:34:27;;;;;;;1.15;0.60;;;7.30;62.60;;;;;;5051595;28;20029;-66
2021/04/14 12:36:53;;;;;;;0.65;0.50;;;7.30;63.50;;;;;;5051831;28;20029;-66
2021/04/14 12:39:19;;;;;;;0.65;0.50;;;7.30;63.70;;;;;;5051915;28;20044;-67
2021/04/14 12:41:45;;;;;;;0.50;0.40;;;7.30;63.10;;;;;;5052142;28;20035;-67
2021/04/14 12:44:11;;;;;;;0.75;0.50;;;7.40;63.50;;;;;;5051859;28;20393;-67
2021/04/14 12:46:43;;;;;;;0.70;0.60;;;7.40;63.30;;;;;;5051774;28;20033;-67
2021/04/14 12:49:13;;;;;;;0.60;0.50;;;7.40;62.40;;;;;;5051819;28;20504;-68
2021/04/14 12:51:43;;;;;;;;;;;7.40;61.90;;;;;;5052356;28;20067;-66
2021/04/14 12:54:31;;;;;;;0.60;0.57;;;7.30;61.20;;;;;;5051742;28;19959;-66
2021/04/14 12:57:06;;;;;;;0.57;0.50;;;7.30;62.60;;;;;;5051828;28;20053;-67
2021/04/14 12:59:38;;;;;;;0.95;0.40;;;7.30;64.10;;;;;;5051550;28;20029;-68
2021/04/14 13:02:13;;;;;;;2.95;0.55;;;7.60;64.30;;;;;;5051196;28;20503;-66
2021/04/14 13:04:45;;;;;;;0.60;0.60;;;7.60;62.80;;;;;;5057596;28;20033;-67
2021/04/14 13:07:24;;;;;;;1.02;0.60;;;7.50;63.00;;;;;;5048482;28;20029;-68
2021/04/14 13:09:52;;;;;;;1.23;0.60;;;7.50;62.80;;;;;;5050919;28;20134;-68
2021/04/14 13:12:34;;;;;;;2.17;0.70;;;7.50;62.40;;;;;;5050149;28;20528;-68
2021/04/14 13:14:59;;;;;;;1.45;0.60;;;7.60;62.90;;;;;;5050690;28;20056;-68
2021/04/14 13:17:28;;;;;;;2.17;0.70;;;7.60;62.30;;;;;;5051096;28;20467;-68
2021/04/14 13:19:55;;;;;;;0.82;0.60;;;7.60;61.80;;;;;;5051380;28;20079;-68
2021/04/14 13:22:42;;;;;;;2.13;0.65;;;7.60;62.40;;;;;;5051312;28;20128;-68
2021/04/14 13:25:14;;;;;;;0.75;0.75;;;7.60;62.30;;;;;;5051252;28;20029;-68
2021/04/14 13:28:02;;;;;;;1.70;0.60;;;7.60;62.60;;;;;;5050972;28;20078;-68
2021/04/14 13:30:34;;;;;;;1.20;0.50;;;7.50;62.30;;;;;;5049862;28;20568;-68
2021/04/14 13:33:17;;;;;;;1.40;0.45;;;7.50;62.10;;;;;;5056147;28;20017;-68
2021/04/14 13:36:11;;;;;;;1.25;0.40;;;7.50;62.20;;;;;;5061060;28;20036;-68
2021/04/14 13:38:38;;;;;;;0.47;0.47;;;7.40;61.90;;;;;;5061054;28;20031;-68
2021/04/14 13:41:06;;;;;;;0.63;0.43;;;7.40;62.60;;;;;;5059829;28;20029;-68
2021/04/14 13:43:51;;;;;;;1.90;0.60;;;7.40;63.30;;;;;;5061136;28;20025;-68
2021/04/14 13:46:28;;;;;;;6.93;0.57;;;7.40;62.80;;;;;;5060037;28;20032;-68
2021/04/14 13:49:11;;;;;;;1.00;0.60;;;7.30;62.80;;;;;;5063046;28;20388;-68
2021/04/14 13:51:40;;;;;;;0.68;0.50;;;7.40;63.20;;;;;;5074739;28;20383;-68
2021/04/14 13:54:06;;;;;;;2.28;0.50;;;7.40;63.10;;;;;;5074882;28;20632;-68
2021/04/14 13:56:43;;;;;;;0.50;0.50;;;7.40;63.00;;;;;;5074597;28;20555;-68
2021/04/14 13:59:29;;;;;;;1.85;0.50;;;7.50;63.00;;;;;;5069248;28;20033;-67
2021/04/14 14:02:03;;;;;;;1.33;0.50;;;7.50;63.10;;;;;;5073566;28;20472;-67
2021/04/14 14:04:38;;;;;;;0.93;0.50;;;7.60;62.50;;;;;;5054794;28;20396;-67
2021/04/14 14:07:09;;;;;;;1.27;0.60;;;7.60;62.20;;;;;;5054526;28;20032;-67
2021/04/14 14:09:40;;;;;;;5.05;0.80;;;7.60;62.30;;;;;;5052702;28;20063;-68
2021/04/14 14:12:25;;;;;;;0.57;0.50;;;7.60;62.50;;;;;;5074481;28;20472;-67
2021/04/14 14:14:55;;;;;;;3.88;0.70;;;7.70;62.00;;;;;;5071430;28;20113;-67
2021/04/14 14:17:25;;;;;;;3.63;0.63;;;7.70;61.40;;;;;;5071422;28;20032;-67
2021/04/14 14:19:56;;;;;;;0.63;0.50;;;7.80;61.40;;;;;;5074504;28;20040;-67
2021/04/14 14:22:23;;;;;;;1.15;0.60;;;7.80;61.20;;;;;;5074202;28;20376;-67
2021/04/14 14:24:49;;;;;;;2.30;0.70;;;7.80;59.80;;;;;;5074027;28;20025;-67
2021/04/14 14:27:15;;;;;;;1.48;0.52;;;7.90;60.70;;;;;;5059924;28;20610;-66
2021/04/14 14:29:42;;;;;;;0.50;0.50;;;8.00;60.00;;;;;;5056134;28;20116;-67
2021/04/14 14:32:14;;;;;;;5.28;0.52;;;8.00;59.00;;;;;;5056856;28;20029;-67
2021/04/14 14:34:41;;;;;;;2.90;0.60;;;8.00;57.80;;;;;;5061963;28;20052;-65
2021/04/14 14:37:25;;;;;;;1.33;0.60;;;7.90;58.10;;;;;;5053914;28;20032;-67
2021/04/14 14:39:54;;;;;;;1.38;0.60;;;8.50;59.40;;;;;;5053939;28;20378;-67
2021/04/14 14:42:45;;;;;;;4.22;0.65;;;8.30;56.80;;;;;;5053963;28;20051;-67
2021/04/14 14:45:23;;;;;;;1.13;0.50;;;8.20;57.30;;;;;;5055852;28;20626;-66
2021/04/14 14:47:59;;;;;;;1.00;0.90;;;8.00;56.70;;;;;;5053779;28;20048;-66
2021/04/14 14:50:30;;;;;;;2.20;0.73;;;8.10;62.50;;;;;;5053693;28;20104;-67
2021/04/14 14:52:56;;;;;;;2.28;0.82;;;9.40;66.00;;;;;;5053799;28;20499;-67
2021/04/14 14:55:24;;;;;;;1.65;0.50;;;9.40;56.60;;;;;;5053496;28;20042;-66
2021/04/14 14:57:53;;;;;;;1.98;0.85;;;8.80;55.40;;;;;;5053330;28;20017;-67
2021/04/14 15:00:29;;;;;;;2.67;0.57;;;8.60;59.70;;;;;;5052700;28;20033;-67
2021/04/14 15:02:55;;;;;;;1.20;0.50;;;8.50;56.70;;;;;;5053263;28;20025;-67
2021/04/14 15:05:21;;;;;;;1.88;0.68;;;8.30;55.70;;;;;;5052744;28;20106;-67
2021/04/14 15:07:47;;;;;;;1.38;0.60;;;8.20;55.30;;;;;;5053503;28;20021;-67
2021/04/14 15:10:21;;;;;;;1.98;0.65;;;8.10;54.90;;;;;;5053148;28;20021;-67
2021/04/14 15:12:46;;;;;;;1.83;0.80;;;8.00;53.70;;;;;;5053365;28;20487;-67
2021/04/14 15:15:12;;;;;;;1.08;0.52;;;7.90;54.10;;;;;;5053104;28;20056;-66
2021/04/14 15:17:39;;;;;;;1.85;1.05;;;7.80;53.80;;;;;;5053173;28;20067;-64
2021/04/14 15:20:07;;;;;;;1.70;0.70;;;8.60;69.80;;;;;;5052876;28;20570;-66
2021/04/14 15:22:34;;;;;;;3.47;0.60;;;9.50;58.30;;;;;;5052939;28;20055;-67
2021/04/14 15:25:00;;;;;;;2.65;0.80;;;9.10;53.90;;;;;;5052746;28;20028;-67
2021/04/14 15:27:28;;;;;;;0.93;0.60;;;8.70;53.90;;;;;;5052477;28;20036;-66
2021/04/14 15:30:20;;;;;;;3.15;0.82;;;8.40;53.90;;;;;;5052854;28;20021;-66
2021/04/14 15:32:47;;;;;;;3.45;0.93;;;8.20;53.60;;;;;;5054614;28;20033;-66
2021/04/14 15:35:19;;;;;;;1.92;0.60;;;8.10;54.80;;;;;;5052160;28;20049;-66
2021/04/14 15:37:50;;;;;;;2.45;0.70;;;8.00;54.40;;;;;;5052205;28;20032;-68
2021/04/14 15:40:18;;;;;;;2.30;0.70;;;7.90;54.00;;;;;;5060146;28;20477;-68
2021/04/14 15:42:46;;;;;;;3.38;0.82;;;7.80;54.30;;;;;;5058890;28;20025;-68
2021/04/14 15:45:12;;;;;;;5.93;0.80;;;7.70;54.00;;;;;;5061576;28;20458;-68
2021/04/14 15:47:38;;;;;;;3.70;0.85;;;7.70;54.20;;;;;;5062853;28;20020;-68
2021/04/14 15:50:06;;;;;;;2.75;0.73;;;7.70;54.00;;;;;;5060916;28;20074;-68
2021/04/14 15:52:34;;;;;;;5.82;1.25;;;7.70;53.70;;;;;;5061596;28;20447;-68
2021/04/14 15:55:10;;;;;;;1.17;0.60;;;7.60;53.50;;;;;;5059492;28;20428;-68
2021/04/14 15:57:37;;;;;;;4.13;0.82;;;7.60;54.00;;;;;;5052454;28;20061;-68
2021/04/14 16:00:06;;;;;;;5.15;0.82;;;7.60;54.70;;;;;;5052006;28;20510;-70
2021/04/14 16:02:33;;;;;;;2.90;0.68;;;7.60;54.20;;;;;;5052305;28;20152;-69
2021/04/14 16:05:03;;;;;;;2.30;1.00;;;7.50;54.00;;;;;;5051480;28;20029;-69
2021/04/14 16:07:29;;;;;;;5.63;0.80;;;7.40;53.40;;;;;;5052189;28;20472;-67
2021/04/14 16:09:56;;;;;;;3.05;0.77;;;7.40;52.80;;;;;;5051294;28;20025;-68
2021/04/14 16:12:22;;;;;;;4.07;1.00;;;7.40;53.70;;;;;;5051964;28;20385;-68
2021/04/14 16:14:48;;;;;;;4.85;1.10;;;7.40;54.40;;;;;;5051484;28;20556;-68
2021/04/14 16:17:14;;;;;;;2.10;0.98;;;7.40;54.40;;;;;;5051872;28;20159;-68
2021/04/14 16:19:41;;;;;;;2.97;1.00;;;7.20;54.10;;;;;;5051537;28;20428;-68
2021/04/14 16:22:07;;;;;;;5.18;1.20;;;7.20;54.70;;;;;;5052239;28;20480;-69
2021/04/14 16:24:33;;;;;;;3.28;0.88;;;7.10;54.70;;;;;;5052168;28;20025;-69
2021/04/14 16:26:59;;;;;;;4.15;0.80;;;7.10;55.00;;;;;;5052519;28;20044;-67
2021/04/14 16:29:26;;;;;;;1.75;0.82;;;7.10;54.50;;;;;;5052258;28;20024;-67
2021/04/14 16:31:51;;;;;;;3.33;0.93;;;7.10;54.90;;;;;;5052263;28;20104;-67
2021/04/14 16:34:17;;;;;;;1.70;0.90;;;7.10;55.00;;;;;;5052191;28;20507;-66
2021/04/14 16:36:43;;;;;;;4.25;1.10;;;7.10;55.00;;;;;;5052319;28;20027;-67
2021/04/14 16:39:11;;;;;;;4.55;1.00;;;7.10;55.20;;;;;;5052192;28;20013;-67
2021/04/14 16:41:37;;;;;;;3.85;0.93;;;7.10;55.70;;;;;;5051840;28;20701;-67
2021/04/14 16:44:03;;;;;;;2.55;0.90;;;7.00;55.70;;;;;;5052041;28;20104;-67
2021/04/14 16:46:29;;;;;;;4.13;1.00;;;7.00;55.30;;;;;;5051843;28;20070;-67
2021/04/14 16:48:56;;;;;;;4.65;2.67;;;7.00;55.90;;;;;;5051797;28;20033;-68
2021/04/14 16:51:23;;;;;;;9.20;1.40;;;7.00;55.60;;;;;;5051483;28;20028;-68
2021/04/14 16:53:49;;;;;;;4.78;0.80;;;7.00;55.60;;;;;;5051500;28;20510;-66
2021/04/14 16:56:16;;;;;;;6.15;1.10;;;6.90;55.90;;;;;;5051881;28;20100;-67
2021/04/14 16:58:42;;;;;;;5.30;1.00;;;6.90;55.70;;;;;;5051819;28;20060;-66
2021/04/14 17:01:07;;;;;;;2.38;0.80;;;6.90;55.60;;;;;;5051544;28;20017;-66
2021/04/14 17:03:33;;;;;;;2.17;0.90;;;6.90;55.80;;;;;;5051708;28;20029;-66
2021/04/14 17:06:00;;;;;;;5.15;1.00;;;6.90;56.20;;;;;;5051922;28;20053;-66
2021/04/14 17:08:27;;;;;;;4.55;1.02;;;6.90;55.90;;;;;;5051712;28;20025;-66
2021/04/14 17:10:53;;;;;;;3.85;1.00;;;6.80;55.70;;;;;;5051428;28;20111;-66
2021/04/14 17:13:23;;;;;;;2.72;0.98;;;6.70;56.00;;;;;;5051725;28;20111;-66
2021/04/14 17:15:53;;;;;;;9.63;1.33;;;6.70;56.20;;;;;;5051324;28;20124;-66
2021/04/14 17:18:20;;;;;;;3.83;0.83;;;6.70;56.00;;;;;;5051659;28;20018;-66
2021/04/14 17:20:46;;;;;;;6.63;1.00;;;6.60;55.80;;;;;;5051431;28;20251;-66
2021/04/14 17:23:11;;;;;;;2.85;1.10;;;6.60;55.90;;;;;;5053967;28;20511;-68
2021/04/14 17:25:39;;;;;;;3.17;0.93;;;6.60;56.20;;;;;;5055376;28;20040;-68
2021/04/14 17:28:05;;;;;;;6.47;1.10;;;6.50;56.10;;;;;;5054942;28;20158;-68
2021/04/14 17:30:33;;;;;;;5.45;1.10;;;6.50;55.60;;;;;;5055181;28;20030;-67
2021/04/14 17:33:01;;;;;;;4.10;1.02;;;6.40;55.60;;;;;;5054850;28;20099;-68
2021/04/14 17:35:28;;;;;;;2.55;1.08;;;6.40;55.90;;;;;;5054966;28;20033;-68